sensor_id;sensor_type;location;lat;lon;timestamp;P1;durP1;ratioP1;P2;durP2;ratioP2
4486;SDS011;2256;48.740;9.106;2023-04-07T00:00:47;14.45;;;7.95;;
4486;SDS011;2256;48.740;9.106;2023-04-07T00:03:14;17.70;;;7.60;;
4486;SDS011;2256;48.740;9.106;2023-04-07T00:05:41;19.80;;;8.45;;
4486;SDS011;2256;48.740;9.106;2023-04-07T00:08:09;20.98;;;9.35;;
4486;SDS011;2256;48.740;9.106;2023-04-07T00:10:38;18.83;;;8.55;;
4486;SDS011;2256;48.740;9.106;2023-04-07T00:13:07;17.70;;;8.73;;
4486;SDS011;2256;48.740;9.106;2023-04-07T00:15:34;21.20;;;8.40;;
4486;SDS011;2256;48.740;9.106;2023-04-07T00:18:01;15.68;;;9.55;;
4486;SDS011;2256;48.740;9.106;2023-04-07T00:20:28;17.02;;;8.80;;
4486;SDS011;2256;48.740;9.106;2023-04-07T00:22:55;15.82;;;8.55;;
4486;SDS011;2256;48.740;9.106;2023-04-07T00:25:23;17.42;;;8.75;;
4486;SDS011;2256;48.740;9.106;2023-04-07T00:27:50;12.63;;;8.35;;
4486;SDS011;2256;48.740;9.106;2023-04-07T00:30:17;20.63;;;8.43;;
4486;SDS011;2256;48.740;9.106;2023-04-07T00:32:44;16.48;;;8.95;;
4486;SDS011;2256;48.740;9.106;2023-04-07T00:35:10;14.20;;;8.48;;
4486;SDS011;2256;48.740;9.106;2023-04-07T00:37:37;20.77;;;9.80;;
4486;SDS011;2256;48.740;9.106;2023-04-07T00:40:05;18.13;;;8.90;;
4486;SDS011;2256;48.740;9.106;2023-04-07T00:42:33;14.32;;;8.30;;
4486;SDS011;2256;48.740;9.106;2023-04-07T00:45:01;19.20;;;9.60;;
4486;SDS011;2256;48.740;9.106;2023-04-07T00:47:30;17.02;;;9.10;;
4486;SDS011;2256;48.740;9.106;2023-04-07T00:49:57;18.55;;;9.43;;
4486;SDS011;2256;48.740;9.106;2023-04-07T00:52:24;18.67;;;8.98;;
4486;SDS011;2256;48.740;9.106;2023-04-07T00:54:54;17.33;;;9.45;;
4486;SDS011;2256;48.740;9.106;2023-04-07T00:57:20;15.93;;;9.15;;
4486;SDS011;2256;48.740;9.106;2023-04-07T00:59:49;12.55;;;8.13;;
4486;SDS011;2256;48.740;9.106;2023-04-07T01:02:17;16.02;;;8.57;;
4486;SDS011;2256;48.740;9.106;2023-04-07T01:04:50;17.80;;;9.30;;
4486;SDS011;2256;48.740;9.106;2023-04-07T01:07:22;17.50;;;9.63;;
4486;SDS011;2256;48.740;9.106;2023-04-07T01:09:53;20.55;;;8.88;;
4486;SDS011;2256;48.740;9.106;2023-04-07T01:12:27;15.43;;;9.52;;
4486;SDS011;2256;48.740;9.106;2023-04-07T01:15:03;16.20;;;8.18;;
4486;SDS011;2256;48.740;9.106;2023-04-07T01:17:34;15.45;;;9.00;;
4486;SDS011;2256;48.740;9.106;2023-04-07T01:20:03;19.90;;;9.80;;
4486;SDS011;2256;48.740;9.106;2023-04-07T01:22:33;16.20;;;8.70;;
4486;SDS011;2256;48.740;9.106;2023-04-07T01:25:17;19.15;;;9.43;;
4486;SDS011;2256;48.740;9.106;2023-04-07T01:27:53;23.13;;;10.23;;
4486;SDS011;2256;48.740;9.106;2023-04-07T01:30:34;19.67;;;9.35;;
4486;SDS011;2256;48.740;9.106;2023-04-07T01:33:05;17.88;;;9.68;;
4486;SDS011;2256;48.740;9.106;2023-04-07T01:35:33;17.90;;;9.70;;
4486;SDS011;2256;48.740;9.106;2023-04-07T01:38:02;15.90;;;8.85;;
4486;SDS011;2256;48.740;9.106;2023-04-07T01:40:30;15.35;;;9.25;;
4486;SDS011;2256;48.740;9.106;2023-04-07T01:42:59;18.92;;;9.50;;
4486;SDS011;2256;48.740;9.106;2023-04-07T01:45:26;17.60;;;9.30;;
4486;SDS011;2256;48.740;9.106;2023-04-07T01:47:56;18.10;;;9.48;;
4486;SDS011;2256;48.740;9.106;2023-04-07T01:50:23;17.10;;;9.88;;
4486;SDS011;2256;48.740;9.106;2023-04-07T01:52:51;23.33;;;8.85;;
4486;SDS011;2256;48.740;9.106;2023-04-07T01:55:19;17.20;;;9.05;;
4486;SDS011;2256;48.740;9.106;2023-04-07T01:57:47;19.75;;;9.95;;
4486;SDS011;2256;48.740;9.106;2023-04-07T02:00:14;16.05;;;8.95;;
4486;SDS011;2256;48.740;9.106;2023-04-07T02:02:43;16.52;;;9.10;;
4486;SDS011;2256;48.740;9.106;2023-04-07T02:05:13;20.83;;;9.80;;
4486;SDS011;2256;48.740;9.106;2023-04-07T02:07:45;16.65;;;9.70;;
4486;SDS011;2256;48.740;9.106;2023-04-07T02:10:19;23.88;;;9.20;;
4486;SDS011;2256;48.740;9.106;2023-04-07T02:12:48;16.02;;;9.05;;
4486;SDS011;2256;48.740;9.106;2023-04-07T02:15:16;21.25;;;10.27;;
4486;SDS011;2256;48.740;9.106;2023-04-07T02:17:45;20.75;;;10.50;;
4486;SDS011;2256;48.740;9.106;2023-04-07T02:20:16;16.08;;;9.27;;
4486;SDS011;2256;48.740;9.106;2023-04-07T02:22:46;20.75;;;9.43;;
4486;SDS011;2256;48.740;9.106;2023-04-07T02:25:20;17.58;;;9.15;;
4486;SDS011;2256;48.740;9.106;2023-04-07T02:27:49;20.73;;;10.00;;
4486;SDS011;2256;48.740;9.106;2023-04-07T02:30:16;13.70;;;8.25;;
4486;SDS011;2256;48.740;9.106;2023-04-07T02:32:43;24.25;;;10.25;;
4486;SDS011;2256;48.740;9.106;2023-04-07T02:35:10;22.25;;;9.27;;
4486;SDS011;2256;48.740;9.106;2023-04-07T02:37:38;19.33;;;10.38;;
4486;SDS011;2256;48.740;9.106;2023-04-07T02:40:05;17.75;;;9.10;;
4486;SDS011;2256;48.740;9.106;2023-04-07T02:42:33;16.35;;;9.38;;
4486;SDS011;2256;48.740;9.106;2023-04-07T02:45:01;17.15;;;8.75;;
4486;SDS011;2256;48.740;9.106;2023-04-07T02:47:28;16.38;;;9.20;;
4486;SDS011;2256;48.740;9.106;2023-04-07T02:49:55;16.85;;;9.23;;
4486;SDS011;2256;48.740;9.106;2023-04-07T02:52:22;17.40;;;9.55;;
4486;SDS011;2256;48.740;9.106;2023-04-07T02:54:51;17.90;;;9.75;;
4486;SDS011;2256;48.740;9.106;2023-04-07T02:57:17;21.00;;;10.32;;
4486;SDS011;2256;48.740;9.106;2023-04-07T02:59:44;22.17;;;9.10;;
4486;SDS011;2256;48.740;9.106;2023-04-07T03:02:11;16.73;;;8.80;;
4486;SDS011;2256;48.740;9.106;2023-04-07T03:04:38;19.20;;;9.60;;
4486;SDS011;2256;48.740;9.106;2023-04-07T03:07:05;20.55;;;10.27;;
4486;SDS011;2256;48.740;9.106;2023-04-07T03:09:33;16.88;;;9.43;;
4486;SDS011;2256;48.740;9.106;2023-04-07T03:12:02;19.50;;;10.60;;
4486;SDS011;2256;48.740;9.106;2023-04-07T03:14:28;18.23;;;8.50;;
4486;SDS011;2256;48.740;9.106;2023-04-07T03:16:55;17.02;;;9.07;;
4486;SDS011;2256;48.740;9.106;2023-04-07T03:19:22;15.10;;;8.80;;
4486;SDS011;2256;48.740;9.106;2023-04-07T03:21:49;25.98;;;9.20;;
4486;SDS011;2256;48.740;9.106;2023-04-07T03:24:16;16.30;;;8.35;;
4486;SDS011;2256;48.740;9.106;2023-04-07T03:26:43;19.30;;;9.45;;
4486;SDS011;2256;48.740;9.106;2023-04-07T03:29:11;17.63;;;9.18;;
4486;SDS011;2256;48.740;9.106;2023-04-07T03:31:38;21.30;;;10.70;;
4486;SDS011;2256;48.740;9.106;2023-04-07T03:34:04;17.83;;;10.23;;
4486;SDS011;2256;48.740;9.106;2023-04-07T03:36:31;16.33;;;9.25;;
4486;SDS011;2256;48.740;9.106;2023-04-07T03:38:58;23.60;;;10.07;;
4486;SDS011;2256;48.740;9.106;2023-04-07T03:41:26;16.90;;;9.23;;
4486;SDS011;2256;48.740;9.106;2023-04-07T03:43:53;18.42;;;9.02;;
4486;SDS011;2256;48.740;9.106;2023-04-07T03:46:21;18.08;;;10.05;;
4486;SDS011;2256;48.740;9.106;2023-04-07T03:48:50;22.90;;;10.57;;
4486;SDS011;2256;48.740;9.106;2023-04-07T03:51:18;17.95;;;8.90;;
4486;SDS011;2256;48.740;9.106;2023-04-07T03:53:45;15.73;;;9.70;;
4486;SDS011;2256;48.740;9.106;2023-04-07T03:56:12;17.58;;;9.45;;
4486;SDS011;2256;48.740;9.106;2023-04-07T03:58:39;16.13;;;8.88;;
4486;SDS011;2256;48.740;9.106;2023-04-07T04:01:06;18.53;;;9.43;;
4486;SDS011;2256;48.740;9.106;2023-04-07T04:03:35;22.20;;;10.52;;
4486;SDS011;2256;48.740;9.106;2023-04-07T04:06:03;22.77;;;11.05;;
4486;SDS011;2256;48.740;9.106;2023-04-07T04:08:31;18.92;;;9.77;;
4486;SDS011;2256;48.740;9.106;2023-04-07T04:10:58;24.27;;;10.55;;
4486;SDS011;2256;48.740;9.106;2023-04-07T04:13:25;20.45;;;9.93;;
4486;SDS011;2256;48.740;9.106;2023-04-07T04:15:52;20.15;;;9.90;;
4486;SDS011;2256;48.740;9.106;2023-04-07T04:18:19;16.90;;;9.88;;
4486;SDS011;2256;48.740;9.106;2023-04-07T04:20:47;19.00;;;10.52;;
4486;SDS011;2256;48.740;9.106;2023-04-07T04:23:14;20.63;;;10.80;;
4486;SDS011;2256;48.740;9.106;2023-04-07T04:25:41;17.70;;;10.67;;
4486;SDS011;2256;48.740;9.106;2023-04-07T04:28:07;19.63;;;10.55;;
4486;SDS011;2256;48.740;9.106;2023-04-07T04:30:34;17.33;;;9.63;;
4486;SDS011;2256;48.740;9.106;2023-04-07T04:33:01;21.15;;;10.32;;
4486;SDS011;2256;48.740;9.106;2023-04-07T04:35:28;31.00;;;12.30;;
4486;SDS011;2256;48.740;9.106;2023-04-07T04:37:56;32.92;;;10.48;;
4486;SDS011;2256;48.740;9.106;2023-04-07T04:40:23;15.13;;;9.43;;
4486;SDS011;2256;48.740;9.106;2023-04-07T04:42:50;20.50;;;11.52;;
4486;SDS011;2256;48.740;9.106;2023-04-07T04:45:16;22.60;;;10.95;;
4486;SDS011;2256;48.740;9.106;2023-04-07T04:47:43;13.27;;;8.05;;
4486;SDS011;2256;48.740;9.106;2023-04-07T04:50:10;18.40;;;9.70;;
4486;SDS011;2256;48.740;9.106;2023-04-07T04:52:37;18.87;;;10.43;;
4486;SDS011;2256;48.740;9.106;2023-04-07T04:55:06;16.83;;;9.50;;
4486;SDS011;2256;48.740;9.106;2023-04-07T04:57:34;21.53;;;10.03;;
4486;SDS011;2256;48.740;9.106;2023-04-07T05:00:01;15.95;;;9.48;;
4486;SDS011;2256;48.740;9.106;2023-04-07T05:02:28;17.70;;;9.52;;
4486;SDS011;2256;48.740;9.106;2023-04-07T05:04:55;14.57;;;8.68;;
4486;SDS011;2256;48.740;9.106;2023-04-07T05:07:22;17.70;;;9.60;;
4486;SDS011;2256;48.740;9.106;2023-04-07T05:09:49;16.58;;;8.23;;
4486;SDS011;2256;48.740;9.106;2023-04-07T05:12:17;17.70;;;9.70;;
4486;SDS011;2256;48.740;9.106;2023-04-07T05:14:44;20.77;;;10.40;;
4486;SDS011;2256;48.740;9.106;2023-04-07T05:17:10;20.83;;;11.18;;
4486;SDS011;2256;48.740;9.106;2023-04-07T05:19:37;22.42;;;9.90;;
4486;SDS011;2256;48.740;9.106;2023-04-07T05:22:04;17.98;;;9.70;;
4486;SDS011;2256;48.740;9.106;2023-04-07T05:24:31;25.87;;;10.27;;
4486;SDS011;2256;48.740;9.106;2023-04-07T05:26:59;24.90;;;10.60;;
4486;SDS011;2256;48.740;9.106;2023-04-07T05:29:28;15.85;;;9.82;;
4486;SDS011;2256;48.740;9.106;2023-04-07T05:31:55;19.90;;;10.63;;
4486;SDS011;2256;48.740;9.106;2023-04-07T05:34:23;18.73;;;10.20;;
4486;SDS011;2256;48.740;9.106;2023-04-07T05:36:49;17.73;;;10.07;;
4486;SDS011;2256;48.740;9.106;2023-04-07T05:39:16;23.65;;;10.45;;
4486;SDS011;2256;48.740;9.106;2023-04-07T05:41:43;18.25;;;10.25;;
4486;SDS011;2256;48.740;9.106;2023-04-07T05:44:10;17.88;;;9.25;;
4486;SDS011;2256;48.740;9.106;2023-04-07T05:46:38;19.52;;;10.45;;
4486;SDS011;2256;48.740;9.106;2023-04-07T05:49:05;24.48;;;9.90;;
4486;SDS011;2256;48.740;9.106;2023-04-07T05:51:32;16.40;;;9.77;;
4486;SDS011;2256;48.740;9.106;2023-04-07T05:54:00;20.13;;;9.10;;
4486;SDS011;2256;48.740;9.106;2023-04-07T05:56:27;17.53;;;8.93;;
4486;SDS011;2256;48.740;9.106;2023-04-07T05:58:55;19.23;;;9.63;;
4486;SDS011;2256;48.740;9.106;2023-04-07T06:01:23;20.13;;;9.17;;
4486;SDS011;2256;48.740;9.106;2023-04-07T06:03:51;21.43;;;9.73;;
4486;SDS011;2256;48.740;9.106;2023-04-07T06:06:18;17.90;;;9.65;;
4486;SDS011;2256;48.740;9.106;2023-04-07T06:08:44;27.07;;;10.30;;
4486;SDS011;2256;48.740;9.106;2023-04-07T06:11:11;16.63;;;9.67;;
4486;SDS011;2256;48.740;9.106;2023-04-07T06:13:39;16.43;;;9.37;;
4486;SDS011;2256;48.740;9.106;2023-04-07T06:16:06;22.43;;;10.10;;
4486;SDS011;2256;48.740;9.106;2023-04-07T06:18:33;16.47;;;9.90;;
4486;SDS011;2256;48.740;9.106;2023-04-07T06:21:01;18.60;;;9.50;;
4486;SDS011;2256;48.740;9.106;2023-04-07T06:23:28;18.63;;;10.10;;
4486;SDS011;2256;48.740;9.106;2023-04-07T06:25:55;19.77;;;9.20;;
4486;SDS011;2256;48.740;9.106;2023-04-07T06:28:22;16.80;;;9.27;;
4486;SDS011;2256;48.740;9.106;2023-04-07T06:30:49;17.47;;;9.97;;
4486;SDS011;2256;48.740;9.106;2023-04-07T06:33:15;17.23;;;9.60;;
4486;SDS011;2256;48.740;9.106;2023-04-07T06:35:42;19.63;;;10.13;;
4486;SDS011;2256;48.740;9.106;2023-04-07T06:38:11;17.97;;;9.50;;
4486;SDS011;2256;48.740;9.106;2023-04-07T06:40:37;20.50;;;13.10;;
4486;SDS011;2256;48.740;9.106;2023-04-07T06:43:04;19.23;;;11.67;;
4486;SDS011;2256;48.740;9.106;2023-04-07T06:45:31;19.13;;;10.03;;
4486;SDS011;2256;48.740;9.106;2023-04-07T06:47:58;15.57;;;9.03;;
4486;SDS011;2256;48.740;9.106;2023-04-07T06:50:25;20.07;;;11.27;;
4486;SDS011;2256;48.740;9.106;2023-04-07T06:52:51;13.93;;;9.70;;
4486;SDS011;2256;48.740;9.106;2023-04-07T06:55:20;18.80;;;11.57;;
4486;SDS011;2256;48.740;9.106;2023-04-07T06:57:46;18.53;;;9.50;;
4486;SDS011;2256;48.740;9.106;2023-04-07T07:00:15;19.20;;;9.83;;
4486;SDS011;2256;48.740;9.106;2023-04-07T07:02:42;21.53;;;10.30;;
4486;SDS011;2256;48.740;9.106;2023-04-07T07:05:09;19.50;;;10.13;;
4486;SDS011;2256;48.740;9.106;2023-04-07T07:07:36;21.20;;;9.63;;
4486;SDS011;2256;48.740;9.106;2023-04-07T07:10:03;20.23;;;9.87;;
4486;SDS011;2256;48.740;9.106;2023-04-07T07:12:31;17.77;;;8.83;;
4486;SDS011;2256;48.740;9.106;2023-04-07T07:14:58;16.07;;;8.90;;
4486;SDS011;2256;48.740;9.106;2023-04-07T07:17:26;16.83;;;8.90;;
4486;SDS011;2256;48.740;9.106;2023-04-07T07:19:53;16.63;;;8.80;;
4486;SDS011;2256;48.740;9.106;2023-04-07T07:22:19;15.13;;;9.03;;
4486;SDS011;2256;48.740;9.106;2023-04-07T07:24:46;16.50;;;8.97;;
4486;SDS011;2256;48.740;9.106;2023-04-07T07:27:13;15.77;;;9.70;;
4486;SDS011;2256;48.740;9.106;2023-04-07T07:29:42;16.33;;;8.97;;
4486;SDS011;2256;48.740;9.106;2023-04-07T07:32:08;14.27;;;8.50;;
4486;SDS011;2256;48.740;9.106;2023-04-07T07:34:35;12.83;;;8.17;;
4486;SDS011;2256;48.740;9.106;2023-04-07T07:37:02;17.20;;;9.80;;
4486;SDS011;2256;48.740;9.106;2023-04-07T07:39:29;15.33;;;9.30;;
4486;SDS011;2256;48.740;9.106;2023-04-07T07:41:56;15.30;;;9.53;;
4486;SDS011;2256;48.740;9.106;2023-04-07T07:44:22;15.23;;;8.80;;
4486;SDS011;2256;48.740;9.106;2023-04-07T07:46:51;15.67;;;8.90;;
4486;SDS011;2256;48.740;9.106;2023-04-07T07:49:18;18.20;;;8.87;;
4486;SDS011;2256;48.740;9.106;2023-04-07T07:51:45;15.30;;;8.03;;
4486;SDS011;2256;48.740;9.106;2023-04-07T07:54:12;13.03;;;7.53;;
4486;SDS011;2256;48.740;9.106;2023-04-07T07:56:39;11.57;;;7.70;;
4486;SDS011;2256;48.740;9.106;2023-04-07T07:59:05;13.80;;;8.23;;
4486;SDS011;2256;48.740;9.106;2023-04-07T08:01:32;14.07;;;8.47;;
4486;SDS011;2256;48.740;9.106;2023-04-07T08:04:00;17.60;;;8.00;;
4486;SDS011;2256;48.740;9.106;2023-04-07T08:06:27;13.00;;;8.90;;
4486;SDS011;2256;48.740;9.106;2023-04-07T08:08:55;11.10;;;7.73;;
4486;SDS011;2256;48.740;9.106;2023-04-07T08:11:22;10.63;;;7.30;;
4486;SDS011;2256;48.740;9.106;2023-04-07T08:13:49;11.57;;;8.10;;
4486;SDS011;2256;48.740;9.106;2023-04-07T08:16:18;9.33;;;6.93;;
4486;SDS011;2256;48.740;9.106;2023-04-07T08:18:45;12.87;;;6.80;;
4486;SDS011;2256;48.740;9.106;2023-04-07T08:21:13;8.90;;;6.70;;
4486;SDS011;2256;48.740;9.106;2023-04-07T08:23:40;11.33;;;7.13;;
4486;SDS011;2256;48.740;9.106;2023-04-07T08:26:06;12.90;;;7.30;;
4486;SDS011;2256;48.740;9.106;2023-04-07T08:28:33;9.20;;;6.57;;
4486;SDS011;2256;48.740;9.106;2023-04-07T08:31:00;9.33;;;6.53;;
4486;SDS011;2256;48.740;9.106;2023-04-07T08:33:27;8.67;;;6.43;;
4486;SDS011;2256;48.740;9.106;2023-04-07T08:35:54;12.10;;;6.90;;
4486;SDS011;2256;48.740;9.106;2023-04-07T08:38:22;8.97;;;6.20;;
4486;SDS011;2256;48.740;9.106;2023-04-07T08:40:49;7.93;;;6.30;;
4486;SDS011;2256;48.740;9.106;2023-04-07T08:43:23;11.40;;;6.23;;
4486;SDS011;2256;48.740;9.106;2023-04-07T08:45:51;10.70;;;6.43;;
4486;SDS011;2256;48.740;9.106;2023-04-07T08:48:23;14.90;;;7.00;;
4486;SDS011;2256;48.740;9.106;2023-04-07T08:50:52;13.73;;;7.10;;
4486;SDS011;2256;48.740;9.106;2023-04-07T08:53:25;12.00;;;8.00;;
4486;SDS011;2256;48.740;9.106;2023-04-07T08:55:58;11.97;;;7.20;;
4486;SDS011;2256;48.740;9.106;2023-04-07T08:58:26;9.93;;;7.00;;
4486;SDS011;2256;48.740;9.106;2023-04-07T09:00:53;9.33;;;6.30;;
4486;SDS011;2256;48.740;9.106;2023-04-07T09:03:20;12.17;;;7.50;;
4486;SDS011;2256;48.740;9.106;2023-04-07T09:05:48;15.57;;;8.57;;
4486;SDS011;2256;48.740;9.106;2023-04-07T09:08:15;13.37;;;7.53;;
4486;SDS011;2256;48.740;9.106;2023-04-07T09:10:43;16.37;;;8.37;;
4486;SDS011;2256;48.740;9.106;2023-04-07T09:13:10;15.67;;;8.50;;
4486;SDS011;2256;48.740;9.106;2023-04-07T09:15:37;12.63;;;6.90;;
4486;SDS011;2256;48.740;9.106;2023-04-07T09:18:05;11.60;;;7.40;;
4486;SDS011;2256;48.740;9.106;2023-04-07T09:23:27;14.43;;;7.60;;
4486;SDS011;2256;48.740;9.106;2023-04-07T09:25:57;13.93;;;8.17;;
4486;SDS011;2256;48.740;9.106;2023-04-07T09:28:39;10.80;;;7.40;;
4486;SDS011;2256;48.740;9.106;2023-04-07T09:31:07;11.40;;;6.57;;
4486;SDS011;2256;48.740;9.106;2023-04-07T09:33:33;11.83;;;7.53;;
4486;SDS011;2256;48.740;9.106;2023-04-07T09:36:01;11.87;;;6.50;;
4486;SDS011;2256;48.740;9.106;2023-04-07T09:38:32;15.73;;;6.10;;
4486;SDS011;2256;48.740;9.106;2023-04-07T09:41:08;13.67;;;6.30;;
4486;SDS011;2256;48.740;9.106;2023-04-07T09:43:36;12.20;;;6.43;;
4486;SDS011;2256;48.740;9.106;2023-04-07T09:46:07;17.03;;;5.07;;
4486;SDS011;2256;48.740;9.106;2023-04-07T09:48:39;9.83;;;6.10;;
4486;SDS011;2256;48.740;9.106;2023-04-07T09:51:08;10.10;;;6.37;;
4486;SDS011;2256;48.740;9.106;2023-04-07T09:53:43;9.93;;;6.30;;
4486;SDS011;2256;48.740;9.106;2023-04-07T09:56:13;9.93;;;5.23;;
4486;SDS011;2256;48.740;9.106;2023-04-07T09:58:42;8.70;;;4.73;;
4486;SDS011;2256;48.740;9.106;2023-04-07T10:01:10;9.27;;;5.17;;
4486;SDS011;2256;48.740;9.106;2023-04-07T10:03:37;6.33;;;4.87;;
4486;SDS011;2256;48.740;9.106;2023-04-07T10:06:05;14.93;;;5.77;;
4486;SDS011;2256;48.740;9.106;2023-04-07T10:08:33;7.67;;;4.83;;
4486;SDS011;2256;48.740;9.106;2023-04-07T10:11:02;10.97;;;5.53;;
4486;SDS011;2256;48.740;9.106;2023-04-07T10:13:31;19.33;;;6.57;;
4486;SDS011;2256;48.740;9.106;2023-04-07T10:15:59;18.47;;;6.50;;
4486;SDS011;2256;48.740;9.106;2023-04-07T10:18:29;12.93;;;6.60;;
4486;SDS011;2256;48.740;9.106;2023-04-07T10:20:56;11.63;;;6.57;;
4486;SDS011;2256;48.740;9.106;2023-04-07T10:23:30;14.03;;;7.80;;
4486;SDS011;2256;48.740;9.106;2023-04-07T10:26:02;24.40;;;8.70;;
4486;SDS011;2256;48.740;9.106;2023-04-07T10:28:33;22.33;;;7.07;;
4486;SDS011;2256;48.740;9.106;2023-04-07T10:31:04;28.50;;;8.23;;
4486;SDS011;2256;48.740;9.106;2023-04-07T10:33:45;17.37;;;8.13;;
4486;SDS011;2256;48.740;9.106;2023-04-07T10:36:13;46.47;;;24.40;;
4486;SDS011;2256;48.740;9.106;2023-04-07T10:38:40;18.93;;;10.50;;
4486;SDS011;2256;48.740;9.106;2023-04-07T10:44:01;17.07;;;8.77;;
4486;SDS011;2256;48.740;9.106;2023-04-07T10:49:27;20.93;;;9.23;;
4486;SDS011;2256;48.740;9.106;2023-04-07T11:03:56;11.63;;;6.53;;
4486;SDS011;2256;48.740;9.106;2023-04-07T11:06:26;14.63;;;6.63;;
4486;SDS011;2256;48.740;9.106;2023-04-07T11:08:53;14.57;;;6.27;;
4486;SDS011;2256;48.740;9.106;2023-04-07T11:11:34;14.33;;;5.03;;
4486;SDS011;2256;48.740;9.106;2023-04-07T11:14:03;7.70;;;4.23;;
4486;SDS011;2256;48.740;9.106;2023-04-07T11:16:38;6.87;;;2.90;;
4486;SDS011;2256;48.740;9.106;2023-04-07T11:19:06;7.67;;;3.30;;
4486;SDS011;2256;48.740;9.106;2023-04-07T11:21:33;6.20;;;2.97;;
4486;SDS011;2256;48.740;9.106;2023-04-07T11:24:00;7.60;;;3.80;;
4486;SDS011;2256;48.740;9.106;2023-04-07T11:26:27;9.27;;;4.17;;
4486;SDS011;2256;48.740;9.106;2023-04-07T11:29:02;6.90;;;3.47;;
4486;SDS011;2256;48.740;9.106;2023-04-07T11:31:29;6.83;;;3.83;;
4486;SDS011;2256;48.740;9.106;2023-04-07T11:33:59;11.03;;;3.53;;
4486;SDS011;2256;48.740;9.106;2023-04-07T11:36:27;17.80;;;4.50;;
4486;SDS011;2256;48.740;9.106;2023-04-07T11:38:55;11.87;;;4.20;;
4486;SDS011;2256;48.740;9.106;2023-04-07T11:41:22;10.77;;;4.90;;
4486;SDS011;2256;48.740;9.106;2023-04-07T11:44:02;8.23;;;3.77;;
4486;SDS011;2256;48.740;9.106;2023-04-07T11:46:30;7.50;;;3.60;;
4486;SDS011;2256;48.740;9.106;2023-04-07T11:49:08;8.30;;;4.03;;
4486;SDS011;2256;48.740;9.106;2023-04-07T11:51:36;9.90;;;4.80;;
4486;SDS011;2256;48.740;9.106;2023-04-07T11:54:03;11.33;;;5.00;;
4486;SDS011;2256;48.740;9.106;2023-04-07T11:56:30;13.73;;;6.67;;
4486;SDS011;2256;48.740;9.106;2023-04-07T11:59:07;16.13;;;6.97;;
4486;SDS011;2256;48.740;9.106;2023-04-07T12:01:40;14.57;;;7.93;;
4486;SDS011;2256;48.740;9.106;2023-04-07T12:04:11;15.90;;;7.20;;
4486;SDS011;2256;48.740;9.106;2023-04-07T12:06:38;15.13;;;8.50;;
4486;SDS011;2256;48.740;9.106;2023-04-07T12:09:07;10.73;;;6.73;;
4486;SDS011;2256;48.740;9.106;2023-04-07T12:11:35;11.40;;;7.13;;
4486;SDS011;2256;48.740;9.106;2023-04-07T12:14:02;11.80;;;6.07;;
4486;SDS011;2256;48.740;9.106;2023-04-07T12:16:30;10.90;;;6.60;;
4486;SDS011;2256;48.740;9.106;2023-04-07T12:18:58;14.40;;;6.77;;
4486;SDS011;2256;48.740;9.106;2023-04-07T12:21:26;17.30;;;7.33;;
4486;SDS011;2256;48.740;9.106;2023-04-07T12:23:53;18.80;;;8.83;;
4486;SDS011;2256;48.740;9.106;2023-04-07T12:26:20;16.90;;;8.23;;
4486;SDS011;2256;48.740;9.106;2023-04-07T12:28:47;13.70;;;8.73;;
4486;SDS011;2256;48.740;9.106;2023-04-07T12:31:13;17.60;;;9.77;;
4486;SDS011;2256;48.740;9.106;2023-04-07T12:33:42;13.43;;;7.30;;
4486;SDS011;2256;48.740;9.106;2023-04-07T12:36:09;12.03;;;7.00;;
4486;SDS011;2256;48.740;9.106;2023-04-07T12:38:37;14.20;;;7.97;;
4486;SDS011;2256;48.740;9.106;2023-04-07T12:41:04;20.13;;;8.57;;
4486;SDS011;2256;48.740;9.106;2023-04-07T12:43:31;15.63;;;7.90;;
4486;SDS011;2256;48.740;9.106;2023-04-07T12:45:57;10.97;;;7.43;;
4486;SDS011;2256;48.740;9.106;2023-04-07T12:48:24;13.73;;;7.40;;
4486;SDS011;2256;48.740;9.106;2023-04-07T12:50:51;23.63;;;9.70;;
4486;SDS011;2256;48.740;9.106;2023-04-07T12:53:18;16.23;;;6.57;;
4486;SDS011;2256;48.740;9.106;2023-04-07T12:55:47;11.00;;;4.50;;
4486;SDS011;2256;48.740;9.106;2023-04-07T12:58:13;7.83;;;4.90;;
4486;SDS011;2256;48.740;9.106;2023-04-07T13:00:41;11.00;;;5.97;;
4486;SDS011;2256;48.740;9.106;2023-04-07T13:03:08;12.53;;;6.00;;
4486;SDS011;2256;48.740;9.106;2023-04-07T13:05:35;10.73;;;5.97;;
4486;SDS011;2256;48.740;9.106;2023-04-07T13:08:02;9.93;;;5.10;;
4486;SDS011;2256;48.740;9.106;2023-04-07T13:10:29;17.60;;;8.27;;
4486;SDS011;2256;48.740;9.106;2023-04-07T13:12:57;15.87;;;6.30;;
4486;SDS011;2256;48.740;9.106;2023-04-07T13:15:24;19.20;;;6.60;;
4486;SDS011;2256;48.740;9.106;2023-04-07T13:17:52;16.30;;;6.03;;
4486;SDS011;2256;48.740;9.106;2023-04-07T13:20:19;11.50;;;5.87;;
4486;SDS011;2256;48.740;9.106;2023-04-07T13:22:45;13.87;;;6.60;;
4486;SDS011;2256;48.740;9.106;2023-04-07T13:25:12;9.37;;;5.87;;
4486;SDS011;2256;48.740;9.106;2023-04-07T13:27:39;11.73;;;5.90;;
4486;SDS011;2256;48.740;9.106;2023-04-07T13:30:08;14.90;;;6.03;;
4486;SDS011;2256;48.740;9.106;2023-04-07T13:32:35;10.53;;;6.30;;
4486;SDS011;2256;48.740;9.106;2023-04-07T13:35:03;17.20;;;6.87;;
4486;SDS011;2256;48.740;9.106;2023-04-07T13:37:30;10.17;;;7.50;;
4486;SDS011;2256;48.740;9.106;2023-04-07T13:39:57;12.70;;;7.07;;
4486;SDS011;2256;48.740;9.106;2023-04-07T13:42:23;16.77;;;6.23;;
4486;SDS011;2256;48.740;9.106;2023-04-07T13:44:50;11.73;;;6.23;;
4486;SDS011;2256;48.740;9.106;2023-04-07T13:47:19;10.57;;;5.90;;
4486;SDS011;2256;48.740;9.106;2023-04-07T13:49:46;8.57;;;5.70;;
4486;SDS011;2256;48.740;9.106;2023-04-07T13:52:14;9.40;;;5.90;;
4486;SDS011;2256;48.740;9.106;2023-04-07T13:54:42;7.53;;;5.73;;
4486;SDS011;2256;48.740;9.106;2023-04-07T13:57:10;9.33;;;5.67;;
4486;SDS011;2256;48.740;9.106;2023-04-07T13:59:44;7.83;;;5.03;;
4486;SDS011;2256;48.740;9.106;2023-04-07T14:02:12;8.67;;;5.17;;
4486;SDS011;2256;48.740;9.106;2023-04-07T14:04:40;9.10;;;4.80;;
4486;SDS011;2256;48.740;9.106;2023-04-07T14:07:07;9.10;;;5.40;;
4486;SDS011;2256;48.740;9.106;2023-04-07T14:09:34;16.63;;;5.63;;
4486;SDS011;2256;48.740;9.106;2023-04-07T14:12:01;11.00;;;5.60;;
4486;SDS011;2256;48.740;9.106;2023-04-07T14:14:28;10.73;;;5.60;;
4486;SDS011;2256;48.740;9.106;2023-04-07T14:16:55;6.93;;;5.50;;
4486;SDS011;2256;48.740;9.106;2023-04-07T14:19:22;9.90;;;4.97;;
4486;SDS011;2256;48.740;9.106;2023-04-07T14:21:51;10.80;;;5.13;;
4486;SDS011;2256;48.740;9.106;2023-04-07T14:24:17;8.80;;;4.27;;
4486;SDS011;2256;48.740;9.106;2023-04-07T14:26:45;10.10;;;4.43;;
4486;SDS011;2256;48.740;9.106;2023-04-07T14:29:12;15.63;;;4.47;;
4486;SDS011;2256;48.740;9.106;2023-04-07T14:31:39;16.53;;;5.00;;
4486;SDS011;2256;48.740;9.106;2023-04-07T14:34:07;8.70;;;5.20;;
4486;SDS011;2256;48.740;9.106;2023-04-07T14:36:34;10.60;;;5.47;;
4486;SDS011;2256;48.740;9.106;2023-04-07T14:39:03;10.43;;;5.20;;
4486;SDS011;2256;48.740;9.106;2023-04-07T14:41:29;9.23;;;4.60;;
4486;SDS011;2256;48.740;9.106;2023-04-07T14:43:56;11.50;;;4.80;;
4486;SDS011;2256;48.740;9.106;2023-04-07T14:46:23;11.97;;;5.63;;
4486;SDS011;2256;48.740;9.106;2023-04-07T14:48:50;6.97;;;4.50;;
4486;SDS011;2256;48.740;9.106;2023-04-07T14:51:17;9.43;;;4.40;;
4486;SDS011;2256;48.740;9.106;2023-04-07T14:53:45;8.03;;;4.33;;
4486;SDS011;2256;48.740;9.106;2023-04-07T14:56:18;10.57;;;4.47;;
4486;SDS011;2256;48.740;9.106;2023-04-07T14:58:46;6.83;;;3.90;;
4486;SDS011;2256;48.740;9.106;2023-04-07T15:01:13;7.20;;;4.20;;
4486;SDS011;2256;48.740;9.106;2023-04-07T15:03:40;8.40;;;4.43;;
4486;SDS011;2256;48.740;9.106;2023-04-07T15:06:07;5.63;;;4.07;;
4486;SDS011;2256;48.740;9.106;2023-04-07T15:08:35;7.13;;;4.10;;
4486;SDS011;2256;48.740;9.106;2023-04-07T15:11:02;9.43;;;4.43;;
4486;SDS011;2256;48.740;9.106;2023-04-07T15:13:31;12.80;;;5.60;;
4486;SDS011;2256;48.740;9.106;2023-04-07T15:16:04;10.03;;;4.93;;
4486;SDS011;2256;48.740;9.106;2023-04-07T15:18:31;8.63;;;4.20;;
4486;SDS011;2256;48.740;9.106;2023-04-07T15:20:59;9.70;;;4.60;;
4486;SDS011;2256;48.740;9.106;2023-04-07T15:23:30;10.03;;;4.30;;
4486;SDS011;2256;48.740;9.106;2023-04-07T15:25:57;8.70;;;4.80;;
4486;SDS011;2256;48.740;9.106;2023-04-07T15:28:26;8.37;;;4.03;;